sensor_id;sensor_type;location;lat;lon;timestamp;pressure;altitude;pressure_sealevel;temperature;humidity
74680;BME280;63211;48.548;2.704;2023-05-02T00:01:59;101391.66;;;18.04;72.53
74680;BME280;63211;48.548;2.704;2023-05-02T00:04:26;101395.88;;;18.07;72.32
74680;BME280;63211;48.548;2.704;2023-05-02T00:06:52;101396.91;;;18.06;72.67
74680;BME280;63211;48.548;2.704;2023-05-02T00:09:19;101399.63;;;18.06;72.51
74680;BME280;63211;48.548;2.704;2023-05-02T00:11:45;101400.47;;;18.06;72.39
74680;BME280;63211;48.548;2.704;2023-05-02T00:14:12;101400.03;;;18.03;72.91
74680;BME280;63211;48.548;2.704;2023-05-02T00:16:39;101400.69;;;18.05;72.52
74680;BME280;63211;48.548;2.704;2023-05-02T00:19:07;101372.13;;;17.94;72.66
74680;BME280;63211;48.548;2.704;2023-05-02T00:21:33;101389.78;;;18.05;72.37
74680;BME280;63211;48.548;2.704;2023-05-02T00:24:00;101387.25;;;18.03;72.71
74680;BME280;63211;48.548;2.704;2023-05-02T00:26:26;101391.22;;;18.01;73.38
74680;BME280;63211;48.548;2.704;2023-05-02T00:28:53;101369.63;;;17.86;72.80
74680;BME280;63211;48.548;2.704;2023-05-02T00:31:20;101383.25;;;17.93;73.25
74680;BME280;63211;48.548;2.704;2023-05-02T00:33:46;101389.75;;;17.98;73.11
74680;BME280;63211;48.548;2.704;2023-05-02T00:36:14;101387.03;;;17.98;72.98
74680;BME280;63211;48.548;2.704;2023-05-02T00:38:41;101382.63;;;17.97;73.18
74680;BME280;63211;48.548;2.704;2023-05-02T00:41:08;101388.91;;;17.98;73.47
74680;BME280;63211;48.548;2.704;2023-05-02T00:43:35;101388.06;;;17.97;73.38
74680;BME280;63211;48.548;2.704;2023-05-02T00:46:03;101392.88;;;17.95;73.58
74680;BME280;63211;48.548;2.704;2023-05-02T00:48:30;101383.25;;;17.99;73.42
74680;BME280;63211;48.548;2.704;2023-05-02T00:50:57;101386.41;;;17.96;73.42
74680;BME280;63211;48.548;2.704;2023-05-02T00:53:25;101383.88;;;17.95;72.99
74680;BME280;63211;48.548;2.704;2023-05-02T00:55:52;101372.34;;;17.93;72.92
74680;BME280;63211;48.548;2.704;2023-05-02T00:58:18;101387.44;;;17.95;73.61
74680;BME280;63211;48.548;2.704;2023-05-02T01:01:01;101388.53;;;18.07;72.48
74680;BME280;63211;48.548;2.704;2023-05-02T01:03:35;101401.31;;;18.13;72.54
74680;BME280;63211;48.548;2.704;2023-05-02T01:06:12;101386.84;;;18.19;71.49
74680;BME280;63211;48.548;2.704;2023-05-02T01:08:50;101370.28;;;18.14;71.29
74680;BME280;63211;48.548;2.704;2023-05-02T01:11:27;101386.66;;;18.28;70.70
74680;BME280;63211;48.548;2.704;2023-05-02T01:13:58;101386.44;;;18.29;70.76
74680;BME280;63211;48.548;2.704;2023-05-02T01:16:27;101388.56;;;18.27;71.78
74680;BME280;63211;48.548;2.704;2023-05-02T01:18:54;101393.38;;;18.25;71.81
74680;BME280;63211;48.548;2.704;2023-05-02T01:21:23;101389.16;;;18.23;72.31
74680;BME280;63211;48.548;2.704;2023-05-02T01:23:59;101390.44;;;18.20;72.15
74680;BME280;63211;48.548;2.704;2023-05-02T01:26:34;101388.94;;;18.17;72.95
74680;BME280;63211;48.548;2.704;2023-05-02T01:29:05;101382.03;;;18.15;72.73
74680;BME280;63211;48.548;2.704;2023-05-02T01:31:35;101391.66;;;18.11;73.23
74680;BME280;63211;48.548;2.704;2023-05-02T01:34:04;101397.94;;;18.11;72.99
74680;BME280;63211;48.548;2.704;2023-05-02T01:36:32;101391.66;;;18.11;72.93
74680;BME280;63211;48.548;2.704;2023-05-02T01:39:00;101399.00;;;18.10;73.13
74680;BME280;63211;48.548;2.704;2023-05-02T01:41:30;101393.75;;;18.09;73.34
74680;BME280;63211;48.548;2.704;2023-05-02T01:43:58;101392.91;;;18.08;73.37
74680;BME280;63211;48.548;2.704;2023-05-02T01:46:30;101402.75;;;18.09;73.27
74680;BME280;63211;48.548;2.704;2023-05-02T01:49:00;101398.16;;;18.03;73.37
74680;BME280;63211;48.548;2.704;2023-05-02T01:51:31;101400.03;;;18.09;73.28
74680;BME280;63211;48.548;2.704;2023-05-02T01:54:01;101401.31;;;18.07;73.40
74680;BME280;63211;48.548;2.704;2023-05-02T01:56:31;101413.91;;;18.08;73.47
74680;BME280;63211;48.548;2.704;2023-05-02T01:58:59;101401.09;;;18.02;73.68
74680;BME280;63211;48.548;2.704;2023-05-02T02:01:29;101417.44;;;18.08;73.67
74680;BME280;63211;48.548;2.704;2023-05-02T02:03:57;101409.03;;;18.10;73.12
74680;BME280;63211;48.548;2.704;2023-05-02T02:06:24;101413.91;;;18.08;73.64
74680;BME280;63211;48.548;2.704;2023-05-02T02:08:51;101414.09;;;18.06;73.53
74680;BME280;63211;48.548;2.704;2023-05-02T02:11:23;101418.06;;;18.04;73.48
74680;BME280;63211;48.548;2.704;2023-05-02T02:13:56;101412.38;;;17.99;73.31
74680;BME280;63211;48.548;2.704;2023-05-02T02:16:33;101407.59;;;18.01;73.47
74680;BME280;63211;48.548;2.704;2023-05-02T02:19:06;101417.44;;;18.02;73.42
74680;BME280;63211;48.548;2.704;2023-05-02T02:21:35;101409.25;;;18.02;73.41
74680;BME280;63211;48.548;2.704;2023-05-02T02:24:04;101405.69;;;18.01;73.64
74680;BME280;63211;48.548;2.704;2023-05-02T02:26:32;101403.16;;;18.00;73.79
74680;BME280;63211;48.548;2.704;2023-05-02T02:29:00;101400.22;;;17.95;73.44
74680;BME280;63211;48.548;2.704;2023-05-02T02:31:29;101406.75;;;18.00;73.58
74680;BME280;63211;48.548;2.704;2023-05-02T02:33:58;101397.06;;;17.91;73.21
74680;BME280;63211;48.548;2.704;2023-05-02T02:36:28;101417.63;;;18.00;73.57
74680;BME280;63211;48.548;2.704;2023-05-02T02:39:07;101395.59;;;17.82;73.32
74680;BME280;63211;48.548;2.704;2023-05-02T02:41:42;101423.69;;;17.96;73.43
74680;BME280;63211;48.548;2.704;2023-05-02T02:44:21;101413.63;;;17.96;73.42
74680;BME280;63211;48.548;2.704;2023-05-02T02:46:59;101405.66;;;17.95;73.10
74680;BME280;63211;48.548;2.704;2023-05-02T02:49:32;101407.75;;;17.93;73.69
74680;BME280;63211;48.548;2.704;2023-05-02T02:52:05;101407.56;;;17.94;73.40
74680;BME280;63211;48.548;2.704;2023-05-02T02:54:40;101395.19;;;17.85;73.54
74680;BME280;63211;48.548;2.704;2023-05-02T02:57:17;101412.38;;;17.92;73.43
74680;BME280;63211;48.548;2.704;2023-05-02T02:59:54;101404.78;;;17.88;73.42
74680;BME280;63211;48.548;2.704;2023-05-02T03:02:27;101414.25;;;17.92;73.27
74680;BME280;63211;48.548;2.704;2023-05-02T03:04:58;101418.00;;;17.91;73.62
74680;BME280;63211;48.548;2.704;2023-05-02T03:07:26;101418.41;;;17.88;73.48
74680;BME280;63211;48.548;2.704;2023-05-02T03:09:53;101424.72;;;17.88;73.15
74680;BME280;63211;48.548;2.704;2023-05-02T03:12:20;101425.16;;;17.85;73.49
74680;BME280;63211;48.548;2.704;2023-05-02T03:14:47;101426.81;;;17.86;73.53
74680;BME280;63211;48.548;2.704;2023-05-02T03:17:13;101422.22;;;17.87;73.34
74680;BME280;63211;48.548;2.704;2023-05-02T03:19:40;101422.22;;;17.87;73.24
74680;BME280;63211;48.548;2.704;2023-05-02T03:22:08;101427.22;;;17.83;73.18
74680;BME280;63211;48.548;2.704;2023-05-02T03:24:34;101426.59;;;17.81;73.47
74680;BME280;63211;48.548;2.704;2023-05-02T03:27:01;101427.88;;;17.85;72.98
74680;BME280;63211;48.548;2.704;2023-05-02T03:29:28;101433.13;;;17.93;72.50
74680;BME280;63211;48.548;2.704;2023-05-02T03:31:55;101429.78;;;17.98;72.09
74680;BME280;63211;48.548;2.704;2023-05-02T03:34:22;101430.22;;;18.01;71.30
74680;BME280;63211;48.548;2.704;2023-05-02T03:36:48;101428.97;;;18.04;71.24
74680;BME280;63211;48.548;2.704;2023-05-02T03:39:16;101431.91;;;18.09;70.93
74680;BME280;63211;48.548;2.704;2023-05-02T03:41:43;101425.19;;;18.11;70.62
74680;BME280;63211;48.548;2.704;2023-05-02T03:44:10;101419.75;;;18.11;70.75
74680;BME280;63211;48.548;2.704;2023-05-02T03:46:37;101404.44;;;18.04;70.95
74680;BME280;63211;48.548;2.704;2023-05-02T03:49:03;101413.91;;;18.08;71.15
74680;BME280;63211;48.548;2.704;2023-05-02T03:51:30;101415.53;;;18.09;71.13
74680;BME280;63211;48.548;2.704;2023-05-02T03:53:59;101421.00;;;18.09;71.34
74680;BME280;63211;48.548;2.704;2023-05-02T03:56:27;101418.50;;;18.07;71.62
74680;BME280;63211;48.548;2.704;2023-05-02T03:58:53;101425.00;;;18.06;71.90
74680;BME280;63211;48.548;2.704;2023-05-02T04:01:20;101427.28;;;18.03;71.94
74680;BME280;63211;48.548;2.704;2023-05-02T04:03:47;101434.19;;;17.99;72.56
74680;BME280;63211;48.548;2.704;2023-05-02T04:06:13;101431.66;;;17.97;72.59
74680;BME280;63211;48.548;2.704;2023-05-02T04:08:40;101429.38;;;18.01;72.62
74680;BME280;63211;48.548;2.704;2023-05-02T04:11:06;101439.84;;;17.97;72.72
74680;BME280;63211;48.548;2.704;2023-05-02T04:13:34;101439.41;;;17.94;72.77
74680;BME280;63211;48.548;2.704;2023-05-02T04:16:01;101438.13;;;17.90;73.16
74680;BME280;63211;48.548;2.704;2023-05-02T04:18:28;101440.22;;;17.88;72.89
74680;BME280;63211;48.548;2.704;2023-05-02T04:20:55;101452.78;;;17.89;72.97
74680;BME280;63211;48.548;2.704;2023-05-02T04:23:22;101432.88;;;17.81;72.85
74680;BME280;63211;48.548;2.704;2023-05-02T04:25:51;101442.13;;;17.87;73.12
74680;BME280;63211;48.548;2.704;2023-05-02T04:28:19;101441.50;;;17.85;72.81
74680;BME280;63211;48.548;2.704;2023-05-02T04:30:47;101445.91;;;17.86;72.82
74680;BME280;63211;48.548;2.704;2023-05-02T04:33:14;101457.41;;;17.88;72.90
74680;BME280;63211;48.548;2.704;2023-05-02T04:35:41;101468.72;;;17.85;73.15
74680;BME280;63211;48.548;2.704;2023-05-02T04:38:08;101460.56;;;17.85;73.17
74680;BME280;63211;48.548;2.704;2023-05-02T04:40:34;101468.09;;;17.83;73.33
74680;BME280;63211;48.548;2.704;2023-05-02T04:43:01;101467.69;;;17.86;73.01
74680;BME280;63211;48.548;2.704;2023-05-02T04:45:27;101471.66;;;17.83;72.75
74680;BME280;63211;48.548;2.704;2023-05-02T04:47:55;101473.53;;;17.83;73.07
74680;BME280;63211;48.548;2.704;2023-05-02T04:50:22;101477.50;;;17.80;73.00
74680;BME280;63211;48.548;2.704;2023-05-02T04:52:48;101486.50;;;17.81;73.04
74680;BME280;63211;48.548;2.704;2023-05-02T04:55:15;101484.84;;;17.80;73.22
74680;BME280;63211;48.548;2.704;2023-05-02T04:57:42;101480.03;;;17.82;72.89
74680;BME280;63211;48.548;2.704;2023-05-02T05:00:09;101487.56;;;17.80;73.10
74680;BME280;63211;48.548;2.704;2023-05-02T05:02:36;101488.41;;;17.80;72.92
74680;BME280;63211;48.548;2.704;2023-05-02T05:05:04;101487.56;;;17.80;72.87
74680;BME280;63211;48.548;2.704;2023-05-02T05:07:31;101490.69;;;17.77;72.95
74680;BME280;63211;48.548;2.704;2023-05-02T05:09:58;101488.59;;;17.79;72.94
74680;BME280;63211;48.548;2.704;2023-05-02T05:12:24;101507.47;;;17.80;72.47
74680;BME280;63211;48.548;2.704;2023-05-02T05:14:51;101502.63;;;17.76;72.78
74680;BME280;63211;48.548;2.704;2023-05-02T05:17:17;101507.47;;;17.80;72.43
74680;BME280;63211;48.548;2.704;2023-05-02T05:19:44;101523.41;;;17.83;72.15
74680;BME280;63211;48.548;2.704;2023-05-02T05:22:12;101522.78;;;17.88;71.52
74680;BME280;63211;48.548;2.704;2023-05-02T05:24:39;101522.56;;;17.90;70.93
74680;BME280;63211;48.548;2.704;2023-05-02T05:27:06;101527.44;;;17.94;70.33
74680;BME280;63211;48.548;2.704;2023-05-02T05:29:32;101525.16;;;17.98;69.80
74680;BME280;63211;48.548;2.704;2023-05-02T05:31:59;101531.22;;;18.00;69.59
74680;BME280;63211;48.548;2.704;2023-05-02T05:34:25;101534.59;;;18.02;69.43
74680;BME280;63211;48.548;2.704;2023-05-02T05:36:52;101537.97;;;18.04;69.84
74680;BME280;63211;48.548;2.704;2023-05-02T05:39:20;101542.38;;;18.05;69.92
74680;BME280;63211;48.548;2.704;2023-05-02T05:41:47;101499.50;;;17.79;70.27
74680;BME280;63211;48.548;2.704;2023-05-02T05:44:13;101544.00;;;17.99;69.78
74680;BME280;63211;48.548;2.704;2023-05-02T05:46:40;101543.19;;;17.99;70.12
74680;BME280;63211;48.548;2.704;2023-05-02T05:49:07;101545.06;;;17.98;70.04
74680;BME280;63211;48.548;2.704;2023-05-02T05:51:34;101541.25;;;17.93;69.88
74680;BME280;63211;48.548;2.704;2023-05-02T05:54:00;101551.94;;;17.94;69.97
74680;BME280;63211;48.548;2.704;2023-05-02T05:56:30;101553.84;;;17.94;70.00
74680;BME280;63211;48.548;2.704;2023-05-02T05:58:57;101556.56;;;17.94;70.38
74680;BME280;63211;48.548;2.704;2023-05-02T06:01:23;101558.25;;;17.95;70.61
74680;BME280;63211;48.548;2.704;2023-05-02T06:03:50;101564.72;;;17.94;71.40
74680;BME280;63211;48.548;2.704;2023-05-02T06:06:16;101563.25;;;17.91;71.32
74680;BME280;63211;48.548;2.704;2023-05-02T06:08:43;101566.38;;;17.88;72.61
74680;BME280;63211;48.548;2.704;2023-05-02T06:11:10;101573.09;;;17.85;71.40
74680;BME280;63211;48.548;2.704;2023-05-02T06:13:38;101577.91;;;17.90;71.80
74680;BME280;63211;48.548;2.704;2023-05-02T06:16:05;101569.75;;;18.38;69.41
74680;BME280;63211;48.548;2.704;2023-05-02T06:18:31;101567.06;;;18.58;68.90
74680;BME280;63211;48.548;2.704;2023-05-02T06:21:02;101575.53;;;18.69;68.53
74680;BME280;63211;48.548;2.704;2023-05-02T06:23:29;101575.75;;;18.74;67.38
74680;BME280;63211;48.548;2.704;2023-05-02T06:25:58;101575.97;;;18.79;67.20
74680;BME280;63211;48.548;2.704;2023-05-02T06:28:24;101572.00;;;18.82;67.02
74680;BME280;63211;48.548;2.704;2023-05-02T06:30:57;101576.81;;;18.80;67.02
74680;BME280;63211;48.548;2.704;2023-05-02T06:33:25;101595.28;;;18.84;66.33
74680;BME280;63211;48.548;2.704;2023-05-02T06:35:52;101584.16;;;18.93;65.98
74680;BME280;63211;48.548;2.704;2023-05-02T06:38:19;101585.22;;;18.98;65.86
74680;BME280;63211;48.548;2.704;2023-05-02T06:40:45;101590.28;;;19.01;65.68
74680;BME280;63211;48.548;2.704;2023-05-02T06:43:12;101599.31;;;19.02;65.50
74680;BME280;63211;48.548;2.704;2023-05-02T06:45:39;101597.00;;;19.05;65.22
74680;BME280;63211;48.548;2.704;2023-05-02T06:48:08;101595.94;;;19.13;65.08
74680;BME280;63211;48.548;2.704;2023-05-02T06:50:35;101595.31;;;19.17;64.93
74680;BME280;63211;48.548;2.704;2023-05-02T06:53:03;101602.25;;;19.20;64.62
74680;BME280;63211;48.548;2.704;2023-05-02T06:55:29;101599.94;;;19.17;65.42
74680;BME280;63211;48.548;2.704;2023-05-02T06:57:56;101599.75;;;19.25;64.57
74680;BME280;63211;48.548;2.704;2023-05-02T07:00:23;101597.25;;;19.30;64.38
74680;BME280;63211;48.548;2.704;2023-05-02T07:02:49;101584.41;;;19.24;64.40
74680;BME280;63211;48.548;2.704;2023-05-02T07:05:17;101600.81;;;19.31;64.11
74680;BME280;63211;48.548;2.704;2023-05-02T07:07:44;101564.66;;;19.02;64.27
74680;BME280;63211;48.548;2.704;2023-05-02T07:10:11;101605.22;;;19.25;64.23
74680;BME280;63211;48.548;2.704;2023-05-02T07:12:38;101609.00;;;19.24;63.98
74680;BME280;63211;48.548;2.704;2023-05-02T07:15:05;101612.97;;;19.21;64.36
74680;BME280;63211;48.548;2.704;2023-05-02T07:17:32;101620.97;;;19.23;63.87
74680;BME280;63211;48.548;2.704;2023-05-02T07:19:59;101616.13;;;19.18;64.44
74680;BME280;63211;48.548;2.704;2023-05-02T07:22:27;101621.16;;;19.21;64.71
74680;BME280;63211;48.548;2.704;2023-05-02T07:24:56;101622.22;;;19.27;64.13
74680;BME280;63211;48.548;2.704;2023-05-02T07:27:23;101622.03;;;19.29;63.69
74680;BME280;63211;48.548;2.704;2023-05-02T07:29:50;101618.66;;;19.27;63.39
74680;BME280;63211;48.548;2.704;2023-05-02T07:32:17;101627.25;;;19.37;63.31
74680;BME280;63211;48.548;2.704;2023-05-02T07:34:43;101625.38;;;19.31;63.15
74680;BME280;63211;48.548;2.704;2023-05-02T07:37:10;101624.13;;;19.27;63.54
74680;BME280;63211;48.548;2.704;2023-05-02T07:39:38;101623.91;;;19.21;64.43
74680;BME280;63211;48.548;2.704;2023-05-02T07:42:04;101624.72;;;19.22;65.44
74680;BME280;63211;48.548;2.704;2023-05-02T07:44:31;101619.50;;;19.27;65.01
74680;BME280;63211;48.548;2.704;2023-05-02T07:46:59;101623.03;;;19.34;63.90
74680;BME280;63211;48.548;2.704;2023-05-02T07:49:25;101633.38;;;19.32;64.75
74680;BME280;63211;48.548;2.704;2023-05-02T07:51:52;101631.91;;;19.30;64.65
74680;BME280;63211;48.548;2.704;2023-05-02T07:54:20;101633.78;;;19.29;64.38
74680;BME280;63211;48.548;2.704;2023-05-02T07:56:48;101635.47;;;19.30;64.00
74680;BME280;63211;48.548;2.704;2023-05-02T07:59:14;101635.47;;;19.30;64.29
74680;BME280;63211;48.548;2.704;2023-05-02T08:01:41;101625.59;;;19.29;64.28
74680;BME280;63211;48.548;2.704;2023-05-02T08:04:08;101632.91;;;19.35;63.80
74680;BME280;63211;48.548;2.704;2023-05-02T08:06:35;101632.09;;;19.35;63.84
74680;BME280;63211;48.548;2.704;2023-05-02T08:09:02;101628.94;;;19.38;63.79
74680;BME280;63211;48.548;2.704;2023-05-02T08:11:29;101631.88;;;19.36;63.58
74680;BME280;63211;48.548;2.704;2023-05-02T08:13:57;101632.50;;;19.38;64.02
74680;BME280;63211;48.548;2.704;2023-05-02T08:16:23;101637.56;;;19.41;63.85
74680;BME280;63211;48.548;2.704;2023-05-02T08:18:50;101648.06;;;19.44;63.39
74680;BME280;63211;48.548;2.704;2023-05-02T08:21:16;101637.78;;;19.46;63.27
74680;BME280;63211;48.548;2.704;2023-05-02T08:23:43;101634.84;;;19.48;63.27
74680;BME280;63211;48.548;2.704;2023-05-02T08:26:10;101646.81;;;19.47;63.04
74680;BME280;63211;48.548;2.704;2023-05-02T08:28:37;101650.38;;;19.47;63.18
74680;BME280;63211;48.548;2.704;2023-05-02T08:31:05;101635.25;;;19.45;63.19
74680;BME280;63211;48.548;2.704;2023-05-02T08:33:31;101652.53;;;19.52;62.91
74680;BME280;63211;48.548;2.704;2023-05-02T08:35:58;101666.78;;;19.54;62.71
74680;BME280;63211;48.548;2.704;2023-05-02T08:38:25;101663.44;;;19.59;62.64
74680;BME280;63211;48.548;2.704;2023-05-02T08:40:51;101668.88;;;19.59;62.77
74680;BME280;63211;48.548;2.704;2023-05-02T08:43:18;101669.72;;;19.59;62.82
74680;BME280;63211;48.548;2.704;2023-05-02T08:45:45;101672.47;;;19.59;62.52
74680;BME280;63211;48.548;2.704;2023-05-02T08:48:13;101686.75;;;19.61;62.72
74680;BME280;63211;48.548;2.704;2023-05-02T08:50:42;101679.81;;;19.59;62.88
74680;BME280;63211;48.548;2.704;2023-05-02T08:53:11;101634.63;;;19.30;62.74
74680;BME280;63211;48.548;2.704;2023-05-02T08:55:40;101630.63;;;19.26;62.64
74680;BME280;63211;48.548;2.704;2023-05-02T08:58:07;101686.97;;;19.60;62.49
74680;BME280;63211;48.548;2.704;2023-05-02T09:00:38;101691.16;;;19.62;63.02
74680;BME280;63211;48.548;2.704;2023-05-02T09:03:05;101681.09;;;19.63;62.53
74680;BME280;63211;48.548;2.704;2023-05-02T09:05:38;101666.38;;;19.57;62.41
74680;BME280;63211;48.548;2.704;2023-05-02T09:08:06;101677.31;;;19.64;62.62
74680;BME280;63211;48.548;2.704;2023-05-02T09:10:34;101681.50;;;19.66;62.41
74680;BME280;63211;48.548;2.704;2023-05-02T09:13:33;101683.19;;;19.67;62.30
74680;BME280;63211;48.548;2.704;2023-05-02T09:16:01;101681.50;;;19.66;62.48
74680;BME280;63211;48.548;2.704;2023-05-02T09:18:29;101691.59;;;19.66;62.53
74680;BME280;63211;48.548;2.704;2023-05-02T09:21:04;101682.56;;;19.65;62.54
74680;BME280;63211;48.548;2.704;2023-05-02T09:23:38;101678.13;;;19.64;62.46
74680;BME280;63211;48.548;2.704;2023-05-02T09:26:15;101651.44;;;19.46;62.13
74680;BME280;63211;48.548;2.704;2023-05-02T09:28:43;101686.97;;;19.66;62.53
74680;BME280;63211;48.548;2.704;2023-05-02T09:31:12;101688.88;;;19.66;62.34
74680;BME280;63211;48.548;2.704;2023-05-02T09:33:39;101692.22;;;19.68;62.17
74680;BME280;63211;48.548;2.704;2023-05-02T09:36:08;101694.75;;;19.69;62.16
74680;BME280;63211;48.548;2.704;2023-05-02T09:38:35;101695.81;;;19.68;62.25
74680;BME280;63211;48.548;2.704;2023-05-02T09:41:01;101698.31;;;19.70;62.48
74680;BME280;63211;48.548;2.704;2023-05-02T09:43:30;101698.53;;;19.68;62.65
74680;BME280;63211;48.548;2.704;2023-05-02T09:45:57;101682.13;;;19.62;62.25
74680;BME280;63211;48.548;2.704;2023-05-02T09:48:25;101694.97;;;19.68;62.38
74680;BME280;63211;48.548;2.704;2023-05-02T09:50:52;101695.81;;;19.68;62.10
74680;BME280;63211;48.548;2.704;2023-05-02T09:53:20;101705.88;;;19.68;62.44
74680;BME280;63211;48.548;2.704;2023-05-02T09:55:47;101705.03;;;19.67;62.58
74680;BME280;63211;48.548;2.704;2023-05-02T09:58:20;101703.16;;;19.68;62.35
74680;BME280;63211;48.548;2.704;2023-05-02T10:00:49;101706.53;;;19.70;62.31
74680;BME280;63211;48.548;2.704;2023-05-02T10:03:16;101703.78;;;19.70;62.14
74680;BME280;63211;48.548;2.704;2023-05-02T10:05:44;101705.47;;;19.71;62.28
74680;BME280;63211;48.548;2.704;2023-05-02T10:08:11;101711.16;;;19.69;62.03
74680;BME280;63211;48.548;2.704;2023-05-02T10:10:42;101712.81;;;19.70;62.04
74680;BME280;63211;48.548;2.704;2023-05-02T10:13:12;101712.00;;;19.70;62.50
74680;BME280;63211;48.548;2.704;2023-05-02T10:15:42;101715.97;;;19.67;62.30
74680;BME280;63211;48.548;2.704;2023-05-02T10:18:15;101714.94;;;19.68;62.15
74680;BME280;63211;48.548;2.704;2023-05-02T10:20:52;101702.50;;;19.59;62.23
74680;BME280;63211;48.548;2.704;2023-05-02T10:23:21;101679.38;;;19.48;62.00
74680;BME280;63211;48.548;2.704;2023-05-02T10:25:52;101714.09;;;19.68;62.08
74680;BME280;63211;48.548;2.704;2023-05-02T10:28:19;101705.66;;;19.63;62.15
74680;BME280;63211;48.548;2.704;2023-05-02T10:30:46;101716.81;;;19.68;62.56
74680;BME280;63211;48.548;2.704;2023-05-02T10:33:13;101707.78;;;19.67;62.59
74680;BME280;63211;48.548;2.704;2023-05-02T10:35:43;101707.56;;;19.69;62.41
74680;BME280;63211;48.548;2.704;2023-05-02T10:38:11;101705.88;;;19.68;62.18
74680;BME280;63211;48.548;2.704;2023-05-02T10:40:39;101705.88;;;19.68;62.50
74680;BME280;63211;48.548;2.704;2023-05-02T10:43:12;101695.78;;;19.62;62.23
74680;BME280;63211;48.548;2.704;2023-05-02T10:45:41;101699.78;;;19.66;62.55
74680;BME280;63211;48.548;2.704;2023-05-02T10:48:15;101692.66;;;19.65;62.41
74680;BME280;63211;48.548;2.704;2023-05-02T10:50:43;101690.97;;;19.64;62.71
74680;BME280;63211;48.548;2.704;2023-05-02T10:53:28;101680.25;;;19.62;62.90
74680;BME280;63211;48.548;2.704;2023-05-02T10:56:22;101689.28;;;19.63;62.85
74680;BME280;63211;48.548;2.704;2023-05-02T10:58:52;101687.59;;;19.62;63.00
74680;BME280;63211;48.548;2.704;2023-05-02T11:01:32;101693.91;;;19.62;62.81
74680;BME280;63211;48.548;2.704;2023-05-02T11:04:01;101691.16;;;19.62;63.07
74680;BME280;63211;48.548;2.704;2023-05-02T11:06:30;101673.94;;;19.55;62.76
74680;BME280;63211;48.548;2.704;2023-05-02T11:09:31;101690.31;;;19.62;62.66
74680;BME280;63211;48.548;2.704;2023-05-02T11:12:01;101692.63;;;19.58;62.73
74680;BME280;63211;48.548;2.704;2023-05-02T11:14:43;101695.38;;;19.58;62.46
74680;BME280;63211;48.548;2.704;2023-05-02T11:17:12;101693.69;;;19.57;62.64
74680;BME280;63211;48.548;2.704;2023-05-02T11:22:50;101658.78;;;19.33;63.36
74680;BME280;63211;48.548;2.704;2023-05-02T11:25:37;101693.88;;;19.55;63.43
74680;BME280;63211;48.548;2.704;2023-05-02T11:28:41;101698.50;;;19.55;63.16
74680;BME280;63211;48.548;2.704;2023-05-02T11:31:09;101703.75;;;19.56;63.31
74680;BME280;63211;48.548;2.704;2023-05-02T11:33:35;101702.94;;;19.56;63.24
74680;BME280;63211;48.548;2.704;2023-05-02T11:36:02;101705.66;;;19.56;63.13
74680;BME280;63211;48.548;2.704;2023-05-02T11:38:34;101707.53;;;19.55;63.23
74680;BME280;63211;48.548;2.704;2023-05-02T11:41:01;101709.44;;;19.55;62.90
74680;BME280;63211;48.548;2.704;2023-05-02T11:43:28;101699.97;;;19.44;63.09
74680;BME280;63211;48.548;2.704;2023-05-02T11:45:57;101713.00;;;19.55;62.78
74680;BME280;63211;48.548;2.704;2023-05-02T11:48:25;101683.13;;;19.34;62.92
74680;BME280;63211;48.548;2.704;2023-05-02T11:50:54;101713.00;;;19.55;63.24
74680;BME280;63211;48.548;2.704;2023-05-02T11:53:22;101705.63;;;19.49;63.67
74680;BME280;63211;48.548;2.704;2023-05-02T11:55:51;101714.06;;;19.54;63.51
74680;BME280;63211;48.548;2.704;2023-05-02T11:58:21;101709.44;;;19.55;63.23
74680;BME280;63211;48.548;2.704;2023-05-02T12:00:49;101701.63;;;19.45;63.01
74680;BME280;63211;48.548;2.704;2023-05-02T12:03:26;101711.31;;;19.54;63.64
74680;BME280;63211;48.548;2.704;2023-05-02T12:05:53;101713.22;;;19.54;62.73
74680;BME280;63211;48.548;2.704;2023-05-02T12:08:21;101721.19;;;19.55;62.73
74680;BME280;63211;48.548;2.704;2023-05-02T12:10:50;101724.78;;;19.56;62.75
74680;BME280;63211;48.548;2.704;2023-05-02T12:13:19;101714.28;;;19.53;63.24
74680;BME280;63211;48.548;2.704;2023-05-02T12:15:46;101716.78;;;19.54;62.54
74680;BME280;63211;48.548;2.704;2023-05-02T12:18:13;101712.41;;;19.53;62.86
74680;BME280;63211;48.548;2.704;2023-05-02T12:20:42;101717.88;;;19.53;62.86
74680;BME280;63211;48.548;2.704;2023-05-02T12:23:09;101719.53;;;19.54;63.79
74680;BME280;63211;48.548;2.704;2023-05-02T12:25:38;101709.63;;;19.47;63.27
74680;BME280;63211;48.548;2.704;2023-05-02T12:28:05;101718.69;;;19.54;62.94
74680;BME280;63211;48.548;2.704;2023-05-02T12:30:32;101688.59;;;19.34;63.00
74680;BME280;63211;48.548;2.704;2023-05-02T12:33:00;101714.91;;;19.55;62.58
74680;BME280;63211;48.548;2.704;2023-05-02T12:35:27;101725.63;;;19.56;62.39
74680;BME280;63211;48.548;2.704;2023-05-02T12:38:07;101728.16;;;19.51;62.91
74680;BME280;63211;48.548;2.704;2023-05-02T12:40:34;101724.78;;;19.56;62.58
74680;BME280;63211;48.548;2.704;2023-05-02T12:43:02;101719.75;;;19.53;62.58
74680;BME280;63211;48.548;2.704;2023-05-02T12:45:31;101723.53;;;19.52;62.48
74680;BME280;63211;48.548;2.704;2023-05-02T12:47:59;101731.28;;;19.55;61.99
74680;BME280;63211;48.548;2.704;2023-05-02T12:50:36;101724.38;;;19.52;63.28
74680;BME280;63211;48.548;2.704;2023-05-02T12:53:04;101727.72;;;19.54;62.39
74680;BME280;63211;48.548;2.704;2023-05-02T12:55:32;101732.13;;;19.55;62.88
74680;BME280;63211;48.548;2.704;2023-05-02T12:57:59;101723.75;;;19.50;62.13
74680;BME280;63211;48.548;2.704;2023-05-02T13:00:26;101723.06;;;19.48;62.30
74680;BME280;63211;48.548;2.704;2023-05-02T13:02:53;101734.88;;;19.55;62.35